sensor_id;sensor_type;location;lat;lon;timestamp;pressure;altitude;pressure_sealevel;temperature;humidity
46111;BME280;31849;55.992;37.252;2023-02-28T00:00:19;99540.22;;;-7.35;60.52
46111;BME280;31849;55.992;37.252;2023-02-28T00:05:25;99524.19;;;-7.35;60.09
46111;BME280;31849;55.992;37.252;2023-02-28T00:10:31;99520.59;;;-7.39;59.98
46111;BME280;31849;55.992;37.252;2023-02-28T00:15:34;99526.69;;;-7.23;60.40
46111;BME280;31849;55.992;37.252;2023-02-28T00:20:38;99529.09;;;-7.25;59.74
46111;BME280;31849;55.992;37.252;2023-02-28T00:25:43;99520.06;;;-7.21;59.80
46111;BME280;31849;55.992;37.252;2023-02-28T00:30:46;99511.78;;;-7.32;59.58
46111;BME280;31849;55.992;37.252;2023-02-28T00:35:50;99509.44;;;-7.29;60.42
46111;BME280;31849;55.992;37.252;2023-02-28T00:40:55;99503.38;;;-7.19;60.45
46111;BME280;31849;55.992;37.252;2023-02-28T00:45:59;99490.13;;;-7.29;60.43
46111;BME280;31849;55.992;37.252;2023-02-28T00:51:03;99472.94;;;-7.46;60.11
46111;BME280;31849;55.992;37.252;2023-02-28T00:56:08;99472.44;;;-7.29;60.64
46111;BME280;31849;55.992;37.252;2023-02-28T01:01:12;99468.25;;;-7.28;60.25
46111;BME280;31849;55.992;37.252;2023-02-28T01:06:15;99450.41;;;-7.43;60.62
46111;BME280;31849;55.992;37.252;2023-02-28T01:11:20;99435.56;;;-7.38;61.37
46111;BME280;31849;55.992;37.252;2023-02-28T01:16:24;99429.34;;;-7.18;60.59
46111;BME280;31849;55.992;37.252;2023-02-28T01:21:27;99398.41;;;-7.28;60.12
46111;BME280;31849;55.992;37.252;2023-02-28T01:26:33;99408.84;;;-7.10;60.97
46111;BME280;31849;55.992;37.252;2023-02-28T01:31:37;99389.03;;;-7.17;60.57
46111;BME280;31849;55.992;37.252;2023-02-28T01:36:40;99383.19;;;-7.16;60.53
46111;BME280;31849;55.992;37.252;2023-02-28T01:41:45;99373.47;;;-7.10;60.79
46111;BME280;31849;55.992;37.252;2023-02-28T01:46:48;99363.63;;;-7.32;61.47
46111;BME280;31849;55.992;37.252;2023-02-28T01:51:54;99362.69;;;-7.07;60.33
46111;BME280;31849;55.992;37.252;2023-02-28T01:57:03;99348.50;;;-7.18;61.10
46111;BME280;31849;55.992;37.252;2023-02-28T02:02:07;99354.28;;;-7.33;61.17
46111;BME280;31849;55.992;37.252;2023-02-28T02:07:12;99341.78;;;-7.18;61.32
46111;BME280;31849;55.992;37.252;2023-02-28T02:12:25;99323.69;;;-7.24;61.97
46111;BME280;31849;55.992;37.252;2023-02-28T02:17:36;99312.03;;;-7.22;61.62
46111;BME280;31849;55.992;37.252;2023-02-28T02:23:07;99299.50;;;-7.20;61.04
46111;BME280;31849;55.992;37.252;2023-02-28T02:34:26;99299.03;;;-7.15;60.85
46111;BME280;31849;55.992;37.252;2023-02-28T02:39:36;99287.44;;;-7.25;61.61
46111;BME280;31849;55.992;37.252;2023-02-28T02:44:47;99270.03;;;-7.20;61.51
46111;BME280;31849;55.992;37.252;2023-02-28T02:49:55;99260.63;;;-7.22;60.89
46111;BME280;31849;55.992;37.252;2023-02-28T02:55:02;99264.97;;;-7.33;61.17
46111;BME280;31849;55.992;37.252;2023-02-28T03:00:09;99248.53;;;-7.53;61.73
46111;BME280;31849;55.992;37.252;2023-02-28T03:05:19;99230.59;;;-7.45;62.03
46111;BME280;31849;55.992;37.252;2023-02-28T03:10:32;99224.56;;;-7.20;61.17
46111;BME280;31849;55.992;37.252;2023-02-28T03:15:44;99223.50;;;-7.23;61.04
46111;BME280;31849;55.992;37.252;2023-02-28T03:21:00;99220.50;;;-7.31;61.35
46111;BME280;31849;55.992;37.252;2023-02-28T03:26:14;99208.06;;;-7.15;61.06
46111;BME280;31849;55.992;37.252;2023-02-28T03:31:23;99201.16;;;-7.17;60.82
46111;BME280;31849;55.992;37.252;2023-02-28T03:36:35;99204.25;;;-6.95;60.78
46111;BME280;31849;55.992;37.252;2023-02-28T03:41:48;99182.13;;;-7.39;61.85
46111;BME280;31849;55.992;37.252;2023-02-28T03:46:56;99184.56;;;-7.14;60.09
46111;BME280;31849;55.992;37.252;2023-02-28T03:52:06;99176.47;;;-7.21;60.63
46111;BME280;31849;55.992;37.252;2023-02-28T03:57:15;99176.47;;;-7.08;60.90
46111;BME280;31849;55.992;37.252;2023-02-28T04:02:22;99171.50;;;-7.33;61.53
46111;BME280;31849;55.992;37.252;2023-02-28T04:07:29;99159.56;;;-7.22;60.62
46111;BME280;31849;55.992;37.252;2023-02-28T04:12:32;99153.63;;;-7.23;60.90
46111;BME280;31849;55.992;37.252;2023-02-28T04:17:36;99140.91;;;-7.38;60.22
46111;BME280;31849;55.992;37.252;2023-02-28T04:22:41;99112.66;;;-7.32;60.67
46111;BME280;31849;55.992;37.252;2023-02-28T04:27:44;99107.56;;;-7.19;60.59
46111;BME280;31849;55.992;37.252;2023-02-28T04:32:48;99099.47;;;-7.00;59.73
46111;BME280;31849;55.992;37.252;2023-02-28T04:37:52;99088.16;;;-6.78;59.29
46111;BME280;31849;55.992;37.252;2023-02-28T04:42:56;99076.91;;;-6.68;59.66
46111;BME280;31849;55.992;37.252;2023-02-28T04:47:59;99063.13;;;-6.74;58.83
46111;BME280;31849;55.992;37.252;2023-02-28T04:53:04;99051.53;;;-6.70;59.42
46111;BME280;31849;55.992;37.252;2023-02-28T04:58:08;99043.72;;;-6.45;59.08
46111;BME280;31849;55.992;37.252;2023-02-28T05:03:11;99033.53;;;-6.31;58.41
46111;BME280;31849;55.992;37.252;2023-02-28T05:08:16;99028.56;;;-6.30;58.11
46111;BME280;31849;55.992;37.252;2023-02-28T05:13:20;99023.91;;;-6.07;57.73
46111;BME280;31849;55.992;37.252;2023-02-28T05:18:23;99019.44;;;-5.96;57.15
46111;BME280;31849;55.992;37.252;2023-02-28T05:23:28;99005.94;;;-5.80;56.63
46111;BME280;31849;55.992;37.252;2023-02-28T05:28:32;98998.75;;;-5.58;56.29
46111;BME280;31849;55.992;37.252;2023-02-28T05:33:35;98977.34;;;-4.99;55.21
46111;BME280;31849;55.992;37.252;2023-02-28T05:38:40;98976.94;;;-4.39;54.00
46111;BME280;31849;55.992;37.252;2023-02-28T05:43:44;98954.59;;;-3.92;53.33
46111;BME280;31849;55.992;37.252;2023-02-28T05:48:48;98912.91;;;-3.40;51.72
46111;BME280;31849;55.992;37.252;2023-02-28T05:53:53;98918.28;;;-3.34;51.71
46111;BME280;31849;55.992;37.252;2023-02-28T05:58:56;98922.69;;;-2.70;50.53
46111;BME280;31849;55.992;37.252;2023-02-28T06:04:00;98908.75;;;-1.48;49.27
46111;BME280;31849;55.992;37.252;2023-02-28T06:09:05;98898.66;;;-1.45;48.25
46111;BME280;31849;55.992;37.252;2023-02-28T06:14:09;98889.81;;;-2.00;48.88
46111;BME280;31849;55.992;37.252;2023-02-28T06:19:16;98856.41;;;-2.73;49.89
46111;BME280;31849;55.992;37.252;2023-02-28T06:24:22;98875.63;;;-2.79;50.07
46111;BME280;31849;55.992;37.252;2023-02-28T06:29:26;98862.41;;;-2.71;50.35
46111;BME280;31849;55.992;37.252;2023-02-28T06:34:30;98833.75;;;-2.23;49.44
46111;BME280;31849;55.992;37.252;2023-02-28T06:39:34;98814.78;;;-1.84;48.78
46111;BME280;31849;55.992;37.252;2023-02-28T06:44:38;98801.03;;;-1.89;48.98
46111;BME280;31849;55.992;37.252;2023-02-28T06:49:42;98781.66;;;-2.08;49.39
46111;BME280;31849;55.992;37.252;2023-02-28T06:54:48;98783.81;;;-1.48;48.81
46111;BME280;31849;55.992;37.252;2023-02-28T07:00:05;98787.75;;;-1.56;48.45
46111;BME280;31849;55.992;37.252;2023-02-28T07:05:09;98756.84;;;-1.66;48.65
46111;BME280;31849;55.992;37.252;2023-02-28T07:10:14;98752.53;;;-1.17;48.76
46111;BME280;31849;55.992;37.252;2023-02-28T07:15:21;98732.81;;;-0.95;48.25
46111;BME280;31849;55.992;37.252;2023-02-28T07:20:24;98749.66;;;-1.00;48.59
46111;BME280;31849;55.992;37.252;2023-02-28T07:25:29;98740.06;;;-1.08;48.49
46111;BME280;31849;55.992;37.252;2023-02-28T07:30:33;98737.22;;;-1.17;48.21
46111;BME280;31849;55.992;37.252;2023-02-28T07:35:36;98737.66;;;-1.54;48.60
46111;BME280;31849;55.992;37.252;2023-02-28T07:40:41;98728.41;;;-1.27;48.89
46111;BME280;31849;55.992;37.252;2023-02-28T07:45:46;98721.50;;;-1.29;49.33
46111;BME280;31849;55.992;37.252;2023-02-28T07:50:54;98696.47;;;-1.15;49.38
46111;BME280;31849;55.992;37.252;2023-02-28T07:56:01;98682.56;;;-0.98;49.33
46111;BME280;31849;55.992;37.252;2023-02-28T08:01:06;98669.50;;;-1.34;49.86
46111;BME280;31849;55.992;37.252;2023-02-28T08:06:16;98668.88;;;-1.00;49.56
46111;BME280;31849;55.992;37.252;2023-02-28T08:11:22;98696.69;;;-0.80;49.32
46111;BME280;31849;55.992;37.252;2023-02-28T08:16:25;98723.09;;;-0.22;48.73
46111;BME280;31849;55.992;37.252;2023-02-28T08:21:28;98744.25;;;-0.55;49.15
46111;BME280;31849;55.992;37.252;2023-02-28T08:26:34;98710.03;;;-1.16;50.16
46111;BME280;31849;55.992;37.252;2023-02-28T08:31:37;98727.41;;;-1.32;50.78
46111;BME280;31849;55.992;37.252;2023-02-28T08:36:41;98708.13;;;-1.22;50.88
46111;BME280;31849;55.992;37.252;2023-02-28T08:41:46;98700.16;;;-1.33;50.81
46111;BME280;31849;55.992;37.252;2023-02-28T08:46:59;98697.75;;;-1.28;51.59
46111;BME280;31849;55.992;37.252;2023-02-28T08:52:03;98654.09;;;-0.83;50.67
46111;BME280;31849;55.992;37.252;2023-02-28T08:57:08;98666.56;;;-0.63;50.67
46111;BME280;31849;55.992;37.252;2023-02-28T09:02:12;98656.06;;;-0.44;50.39
46111;BME280;31849;55.992;37.252;2023-02-28T09:07:16;98656.63;;;-0.54;50.76
46111;BME280;31849;55.992;37.252;2023-02-28T09:12:21;98683.56;;;-0.35;51.40
46111;BME280;31849;55.992;37.252;2023-02-28T09:17:24;98661.41;;;-0.65;50.88
46111;BME280;31849;55.992;37.252;2023-02-28T09:22:31;98661.59;;;-0.28;50.89
46111;BME280;31849;55.992;37.252;2023-02-28T09:27:36;98649.53;;;-0.34;51.33
46111;BME280;31849;55.992;37.252;2023-02-28T09:32:41;98636.84;;;-0.90;52.14
46111;BME280;31849;55.992;37.252;2023-02-28T09:37:54;98628.59;;;-0.81;52.12
46111;BME280;31849;55.992;37.252;2023-02-28T09:42:59;98618.19;;;-0.59;51.73
46111;BME280;31849;55.992;37.252;2023-02-28T09:48:06;98600.56;;;-0.49;52.14
46111;BME280;31849;55.992;37.252;2023-02-28T09:53:19;98594.91;;;-0.07;51.15
46111;BME280;31849;55.992;37.252;2023-02-28T09:58:32;98564.16;;;-0.10;51.42
46111;BME280;31849;55.992;37.252;2023-02-28T10:03:39;98553.38;;;0.02;51.33
46111;BME280;31849;55.992;37.252;2023-02-28T10:08:50;98569.13;;;-0.15;51.30
46111;BME280;31849;55.992;37.252;2023-02-28T10:14:00;98565.69;;;-0.49;52.48
46111;BME280;31849;55.992;37.252;2023-02-28T10:19:13;98573.28;;;-0.19;51.47
46111;BME280;31849;55.992;37.252;2023-02-28T10:24:28;98568.41;;;-0.43;52.53
46111;BME280;31849;55.992;37.252;2023-02-28T10:29:35;98563.69;;;-0.27;51.77
46111;BME280;31849;55.992;37.252;2023-02-28T10:34:38;98547.72;;;-0.20;52.11
46111;BME280;31849;55.992;37.252;2023-02-28T10:39:43;98513.25;;;-0.68;52.82
46111;BME280;31849;55.992;37.252;2023-02-28T10:44:49;98542.03;;;-0.42;52.75
46111;BME280;31849;55.992;37.252;2023-02-28T10:49:53;98518.16;;;-0.44;52.91
46111;BME280;31849;55.992;37.252;2023-02-28T10:55:14;98525.88;;;-0.41;53.10
46111;BME280;31849;55.992;37.252;2023-02-28T11:00:21;98514.34;;;-0.26;53.27
46111;BME280;31849;55.992;37.252;2023-02-28T11:05:29;98518.06;;;-0.13;53.29
46111;BME280;31849;55.992;37.252;2023-02-28T11:10:33;98512.94;;;0.22;52.79
46111;BME280;31849;55.992;37.252;2023-02-28T11:15:39;98502.75;;;0.23;53.00
46111;BME280;31849;55.992;37.252;2023-02-28T11:20:48;98497.03;;;0.33;52.99
46111;BME280;31849;55.992;37.252;2023-02-28T11:25:54;98485.06;;;0.32;53.69
46111;BME280;31849;55.992;37.252;2023-02-28T11:31:04;98482.59;;;0.37;53.52
46111;BME280;31849;55.992;37.252;2023-02-28T11:36:11;98483.13;;;0.60;53.44
46111;BME280;31849;55.992;37.252;2023-02-28T11:41:35;98467.94;;;0.68;53.45
46111;BME280;31849;55.992;37.252;2023-02-28T11:46:50;98454.56;;;0.81;54.08
46111;BME280;31849;55.992;37.252;2023-02-28T11:52:00;98446.50;;;0.63;54.68
46111;BME280;31849;55.992;37.252;2023-02-28T11:57:19;98446.56;;;0.66;54.69
46111;BME280;31849;55.992;37.252;2023-02-28T12:02:30;98435.34;;;0.59;54.73
46111;BME280;31849;55.992;37.252;2023-02-28T12:07:41;98433.63;;;0.58;55.28
46111;BME280;31849;55.992;37.252;2023-02-28T12:12:54;98429.09;;;0.45;55.78
46111;BME280;31849;55.992;37.252;2023-02-28T12:18:16;98424.00;;;0.46;56.49
46111;BME280;31849;55.992;37.252;2023-02-28T12:23:44;98406.38;;;0.60;55.90
46111;BME280;31849;55.992;37.252;2023-02-28T12:28:52;98398.72;;;0.62;55.79
46111;BME280;31849;55.992;37.252;2023-02-28T12:34:01;98397.72;;;0.54;55.72
46111;BME280;31849;55.992;37.252;2023-02-28T12:39:10;98381.88;;;0.29;56.49
46111;BME280;31849;55.992;37.252;2023-02-28T12:44:19;98367.47;;;0.77;56.68
46111;BME280;31849;55.992;37.252;2023-02-28T12:49:30;98358.94;;;0.76;56.29
46111;BME280;31849;55.992;37.252;2023-02-28T12:54:40;98344.31;;;0.70;55.94
46111;BME280;31849;55.992;37.252;2023-02-28T12:59:50;98315.25;;;0.65;56.00
46111;BME280;31849;55.992;37.252;2023-02-28T13:05:35;98343.50;;;0.72;55.96
46111;BME280;31849;55.992;37.252;2023-02-28T13:10:43;98340.00;;;0.68;56.18
46111;BME280;31849;55.992;37.252;2023-02-28T13:15:58;98333.91;;;0.60;55.97
46111;BME280;31849;55.992;37.252;2023-02-28T13:21:05;98317.56;;;0.53;56.30
46111;BME280;31849;55.992;37.252;2023-02-28T13:26:09;98298.56;;;0.40;57.11
46111;BME280;31849;55.992;37.252;2023-02-28T13:31:15;98292.59;;;0.41;56.89
46111;BME280;31849;55.992;37.252;2023-02-28T13:36:26;98293.69;;;0.52;56.83
46111;BME280;31849;55.992;37.252;2023-02-28T13:41:45;98306.59;;;0.59;57.09
46111;BME280;31849;55.992;37.252;2023-02-28T13:47:19;98298.91;;;0.59;57.02
46111;BME280;31849;55.992;37.252;2023-02-28T13:52:25;98309.25;;;0.65;56.76
46111;BME280;31849;55.992;37.252;2023-02-28T13:57:41;98300.69;;;0.63;57.42
46111;BME280;31849;55.992;37.252;2023-02-28T14:03:05;98298.97;;;0.62;57.52
46111;BME280;31849;55.992;37.252;2023-02-28T14:08:16;98297.72;;;0.87;57.05
46111;BME280;31849;55.992;37.252;2023-02-28T14:13:41;98289.47;;;0.56;57.92
46111;BME280;31849;55.992;37.252;2023-02-28T14:18:51;98287.84;;;0.60;57.63
46111;BME280;31849;55.992;37.252;2023-02-28T14:30:11;98261.38;;;0.58;57.99
46111;BME280;31849;55.992;37.252;2023-02-28T14:35:29;98268.69;;;0.38;59.02
46111;BME280;31849;55.992;37.252;2023-02-28T14:40:40;98260.94;;;0.33;58.52
46111;BME280;31849;55.992;37.252;2023-02-28T14:45:49;98257.50;;;0.32;59.48
46111;BME280;31849;55.992;37.252;2023-02-28T14:50:56;98261.94;;;0.43;58.67
46111;BME280;31849;55.992;37.252;2023-02-28T14:56:00;98257.53;;;0.34;59.06
46111;BME280;31849;55.992;37.252;2023-02-28T15:01:05;98259.69;;;0.58;59.28
46111;BME280;31849;55.992;37.252;2023-02-28T15:06:14;98256.88;;;0.46;59.20
46111;BME280;31849;55.992;37.252;2023-02-28T15:11:19;98242.50;;;0.51;59.46
46111;BME280;31849;55.992;37.252;2023-02-28T15:16:28;98249.72;;;0.74;59.02
46111;BME280;31849;55.992;37.252;2023-02-28T15:21:36;98235.38;;;0.82;58.94
46111;BME280;31849;55.992;37.252;2023-02-28T15:26:52;98237.88;;;0.79;59.32
46111;BME280;31849;55.992;37.252;2023-02-28T15:32:02;98233.06;;;0.99;58.63
46111;BME280;31849;55.992;37.252;2023-02-28T15:37:26;98239.22;;;1.10;59.17
46111;BME280;31849;55.992;37.252;2023-02-28T15:42:32;98236.41;;;0.95;59.18
46111;BME280;31849;55.992;37.252;2023-02-28T15:47:36;98234.56;;;0.86;59.58
46111;BME280;31849;55.992;37.252;2023-02-28T15:52:42;98236.16;;;0.79;59.67
46111;BME280;31849;55.992;37.252;2023-02-28T15:57:48;98228.66;;;0.90;60.02
46111;BME280;31849;55.992;37.252;2023-02-28T16:02:54;98240.81;;;1.02;59.25
46111;BME280;31849;55.992;37.252;2023-02-28T16:07:59;98230.66;;;1.08;59.76
46111;BME280;31849;55.992;37.252;2023-02-28T16:13:03;98225.47;;;1.03;59.88
46111;BME280;31849;55.992;37.252;2023-02-28T16:18:11;98230.84;;;1.20;59.59
46111;BME280;31849;55.992;37.252;2023-02-28T16:23:14;98212.63;;;1.02;59.77
46111;BME280;31849;55.992;37.252;2023-02-28T16:28:21;98228.06;;;1.07;59.58
46111;BME280;31849;55.992;37.252;2023-02-28T16:33:27;98224.78;;;1.14;59.57
46111;BME280;31849;55.992;37.252;2023-02-28T16:38:30;98223.25;;;1.25;59.62
46111;BME280;31849;55.992;37.252;2023-02-28T16:43:36;98220.47;;;1.13;59.69
46111;BME280;31849;55.992;37.252;2023-02-28T16:48:42;98225.78;;;1.23;59.87
46111;BME280;31849;55.992;37.252;2023-02-28T16:53:45;98215.03;;;0.91;59.84
46111;BME280;31849;55.992;37.252;2023-02-28T16:58:50;98210.75;;;0.90;60.19
46111;BME280;31849;55.992;37.252;2023-02-28T17:03:55;98206.59;;;0.95;60.16
46111;BME280;31849;55.992;37.252;2023-02-28T17:08:58;98212.72;;;1.07;59.27
46111;BME280;31849;55.992;37.252;2023-02-28T17:14:02;98204.97;;;1.02;60.03
46111;BME280;31849;55.992;37.252;2023-02-28T17:19:11;98212.06;;;1.21;59.47
46111;BME280;31849;55.992;37.252;2023-02-28T17:24:15;98260.63;;;1.15;59.01
46111;BME280;31849;55.992;37.252;2023-02-28T17:29:31;98269.13;;;0.62;59.28
46111;BME280;31849;55.992;37.252;2023-02-28T17:34:36;98268.25;;;0.16;60.28
46111;BME280;31849;55.992;37.252;2023-02-28T17:39:39;98274.75;;;-0.41;61.59
46111;BME280;31849;55.992;37.252;2023-02-28T17:44:42;98259.66;;;-0.68;63.30
46111;BME280;31849;55.992;37.252;2023-02-28T17:49:47;98252.81;;;-0.71;63.43
46111;BME280;31849;55.992;37.252;2023-02-28T17:54:51;98257.00;;;-0.73;63.34
46111;BME280;31849;55.992;37.252;2023-02-28T17:59:54;98249.72;;;-0.58;63.24
46111;BME280;31849;55.992;37.252;2023-02-28T18:05:00;98249.19;;;-0.43;63.21
46111;BME280;31849;55.992;37.252;2023-02-28T18:10:11;98254.41;;;-0.37;62.82
46111;BME280;31849;55.992;37.252;2023-02-28T18:15:18;98258.59;;;-0.39;62.86
46111;BME280;31849;55.992;37.252;2023-02-28T18:20:24;98268.34;;;-0.22;61.95
46111;BME280;31849;55.992;37.252;2023-02-28T18:25:28;98274.28;;;-0.23;61.26
46111;BME280;31849;55.992;37.252;2023-02-28T18:30:35;98278.59;;;-0.21;60.47
46111;BME280;31849;55.992;37.252;2023-02-28T18:35:40;98282.28;;;-0.06;59.72
46111;BME280;31849;55.992;37.252;2023-02-28T18:40:51;98275.63;;;0.01;59.08
46111;BME280;31849;55.992;37.252;2023-02-28T18:45:56;98280.56;;;-0.09;58.82
46111;BME280;31849;55.992;37.252;2023-02-28T18:51:06;98285.16;;;0.08;58.45
46111;BME280;31849;55.992;37.252;2023-02-28T18:56:11;98294.41;;;0.03;58.10
46111;BME280;31849;55.992;37.252;2023-02-28T19:01:17;98296.25;;;0.10;57.74
46111;BME280;31849;55.992;37.252;2023-02-28T19:06:23;98290.13;;;0.00;57.72
46111;BME280;31849;55.992;37.252;2023-02-28T19:11:27;98271.84;;;-0.17;57.24
46111;BME280;31849;55.992;37.252;2023-02-28T19:16:31;98278.59;;;-0.21;56.67
46111;BME280;31849;55.992;37.252;2023-02-28T19:21:36;98285.13;;;-0.33;55.65
46111;BME280;31849;55.992;37.252;2023-02-28T19:26:39;98280.72;;;-0.77;54.22
46111;BME280;31849;55.992;37.252;2023-02-28T19:31:43;98271.38;;;-1.12;53.33
46111;BME280;31849;55.992;37.252;2023-02-28T19:36:48;98287.91;;;-1.31;53.17
46111;BME280;31849;55.992;37.252;2023-02-28T19:41:51;98295.81;;;-1.53;52.13
46111;BME280;31849;55.992;37.252;2023-02-28T19:46:55;98304.59;;;-1.74;51.76
46111;BME280;31849;55.992;37.252;2023-02-28T19:52:00;98312.22;;;-1.75;51.06
46111;BME280;31849;55.992;37.252;2023-02-28T19:57:04;98302.06;;;-2.04;50.99
46111;BME280;31849;55.992;37.252;2023-02-28T20:02:12;98293.19;;;-2.17;50.34
46111;BME280;31849;55.992;37.252;2023-02-28T20:07:18;98298.84;;;-2.27;50.47
46111;BME280;31849;55.992;37.252;2023-02-28T20:12:22;98285.56;;;-2.46;50.17
46111;BME280;31849;55.992;37.252;2023-02-28T20:17:27;98285.31;;;-2.55;50.11
46111;BME280;31849;55.992;37.252;2023-02-28T20:22:32;98286.53;;;-2.70;50.11
46111;BME280;31849;55.992;37.252;2023-02-28T20:27:39;98278.13;;;-2.94;50.86
46111;BME280;31849;55.992;37.252;2023-02-28T20:32:42;98272.00;;;-3.01;50.73
46111;BME280;31849;55.992;37.252;2023-02-28T20:37:47;98289.06;;;-2.97;50.16
46111;BME280;31849;55.992;37.252;2023-02-28T20:42:51;98283.69;;;-3.06;49.68
46111;BME280;31849;55.992;37.252;2023-02-28T20:47:55;98289.69;;;-3.04;48.72
46111;BME280;31849;55.992;37.252;2023-02-28T20:52:59;98265.84;;;-3.08;48.25
46111;BME280;31849;55.992;37.252;2023-02-28T20:58:03;98282.47;;;-3.17;48.10
46111;BME280;31849;55.992;37.252;2023-02-28T21:03:06;98282.19;;;-3.25;48.69
46111;BME280;31849;55.992;37.252;2023-02-28T21:08:11;98282.16;;;-3.27;48.09
46111;BME280;31849;55.992;37.252;2023-02-28T21:13:14;98286.34;;;-3.29;48.10
46111;BME280;31849;55.992;37.252;2023-02-28T21:18:18;98285.53;;;-3.52;48.44
46111;BME280;31849;55.992;37.252;2023-02-28T21:23:23;98282.44;;;-3.43;48.66
46111;BME280;31849;55.992;37.252;2023-02-28T21:28:27;98285.00;;;-3.43;48.20
46111;BME280;31849;55.992;37.252;2023-02-28T21:33:31;98278.25;;;-3.43;48.24
46111;BME280;31849;55.992;37.252;2023-02-28T21:38:36;98296.84;;;-3.44;48.42
46111;BME280;31849;55.992;37.252;2023-02-28T21:43:41;98293.91;;;-3.56;47.98
46111;BME280;31849;55.992;37.252;2023-02-28T21:48:45;98286.91;;;-3.62;47.99
46111;BME280;31849;55.992;37.252;2023-02-28T21:53:51;98296.19;;;-3.62;48.43
46111;BME280;31849;55.992;37.252;2023-02-28T21:58:55;98292.38;;;-3.75;48.96
46111;BME280;31849;55.992;37.252;2023-02-28T22:04:03;98300.81;;;-3.76;48.94
46111;BME280;31849;55.992;37.252;2023-02-28T22:09:08;98296.81;;;-3.69;48.66
46111;BME280;31849;55.992;37.252;2023-02-28T22:14:12;98297.84;;;-3.89;48.71
46111;BME280;31849;55.992;37.252;2023-02-28T22:19:16;98298.16;;;-4.03;48.77
46111;BME280;31849;55.992;37.252;2023-02-28T22:24:20;98287.34;;;-3.98;48.79
46111;BME280;31849;55.992;37.252;2023-02-28T22:29:25;98291.31;;;-4.04;48.88
46111;BME280;31849;55.992;37.252;2023-02-28T22:34:29;98296.13;;;-4.12;49.05
46111;BME280;31849;55.992;37.252;2023-02-28T22:39:34;98289.94;;;-4.19;48.95
46111;BME280;31849;55.992;37.252;2023-02-28T22:44:37;98288.69;;;-4.30;48.62
46111;BME280;31849;55.992;37.252;2023-02-28T22:49:42;98286.84;;;-4.34;49.07
46111;BME280;31849;55.992;37.252;2023-02-28T22:54:49;98285.75;;;-4.41;49.15
46111;BME280;31849;55.992;37.252;2023-02-28T22:59:54;98281.91;;;-4.54;49.09
46111;BME280;31849;55.992;37.252;2023-02-28T23:04:57;98282.22;;;-4.67;49.30
46111;BME280;31849;55.992;37.252;2023-02-28T23:10:04;98270.16;;;-4.73;49.52
46111;BME280;31849;55.992;37.252;2023-02-28T23:15:10;98280.81;;;-4.82;49.82
46111;BME280;31849;55.992;37.252;2023-02-28T23:20:17;98266.34;;;-4.84;49.10
46111;BME280;31849;55.992;37.252;2023-02-28T23:25:23;98265.59;;;-4.82;48.86
46111;BME280;31849;55.992;37.252;2023-02-28T23:30:26;98279.06;;;-4.83;49.49
46111;BME280;31849;55.992;37.252;2023-02-28T23:35:30;98266.34;;;-4.84;49.01
46111;BME280;31849;55.992;37.252;2023-02-28T23:40:35;98275.91;;;-4.77;49.35
46111;BME280;31849;55.992;37.252;2023-02-28T23:45:39;98275.44;;;-4.89;48.85
46111;BME280;31849;55.992;37.252;2023-02-28T23:50:47;98273.81;;;-4.87;48.92
46111;BME280;31849;55.992;37.252;2023-02-28T23:55:52;98273.38;;;-4.77;49.51
